createdAt,value
2024-03-06T00:00:16.693Z,30.40
2024-03-06T00:01:16.693Z,32.60
2024-03-06T00:02:16.717Z,30.70
2024-03-06T00:03:16.682Z,31.30
2024-03-06T00:04:18.855Z,29.80
2024-03-06T00:05:16.692Z,30.00
2024-03-06T00:06:16.776Z,31.00
2024-03-06T00:07:16.635Z,31.20
2024-03-06T00:08:16.682Z,32.20
2024-03-06T00:09:16.597Z,29.80
2024-03-06T00:10:16.601Z,30.20
2024-03-06T00:11:16.809Z,30.20
2024-03-06T00:12:16.572Z,30.80
2024-03-06T00:13:16.553Z,30.80
2024-03-06T00:14:16.576Z,31.90
2024-03-06T00:15:16.531Z,30.80
2024-03-06T00:16:19.485Z,30.40
2024-03-06T00:17:16.573Z,30.80
2024-03-06T00:18:16.516Z,31.60
2024-03-06T00:19:16.483Z,30.40
2024-03-06T00:20:16.577Z,31.10
2024-03-06T00:21:16.465Z,31.00
2024-03-06T00:22:16.830Z,31.90
2024-03-06T00:23:16.493Z,31.90
2024-03-06T00:24:16.437Z,30.80
2024-03-06T00:25:16.439Z,30.80
2024-03-06T00:26:16.476Z,29.40
2024-03-06T00:27:16.396Z,30.60
2024-03-06T00:28:16.390Z,31.00
2024-03-06T00:29:16.431Z,30.80
2024-03-06T00:30:16.377Z,31.20
2024-03-06T00:31:16.367Z,30.90
2024-03-06T00:32:16.375Z,31.70
2024-03-06T00:33:16.373Z,31.00
2024-03-06T00:34:16.343Z,30.50
2024-03-06T00:35:16.358Z,31.50
2024-03-06T00:36:16.313Z,31.40
2024-03-06T00:37:16.293Z,31.20
2024-03-06T00:38:16.341Z,31.80
2024-03-06T00:39:16.270Z,32.00
2024-03-06T00:40:16.280Z,30.70
2024-03-06T00:41:16.299Z,32.00
2024-03-06T00:42:16.238Z,29.90
2024-03-06T00:43:16.221Z,30.70
2024-03-06T00:44:16.232Z,30.90
2024-03-06T00:45:16.230Z,30.90
2024-03-06T00:46:16.191Z,30.60
2024-03-06T00:47:16.223Z,30.50
2024-03-06T00:48:16.183Z,31.20
2024-03-06T00:49:16.171Z,31.40
2024-03-06T00:50:16.272Z,31.10
2024-03-06T00:51:16.138Z,31.00
2024-03-06T00:52:16.126Z,31.30
2024-03-06T00:53:16.171Z,30.70
2024-03-06T00:54:16.152Z,30.10
2024-03-06T00:55:16.108Z,31.90
2024-03-06T00:56:16.133Z,31.30
2024-03-06T00:57:16.079Z,30.10
2024-03-06T00:58:16.070Z,29.90
2024-03-06T00:59:16.134Z,30.50
2024-03-06T01:00:16.044Z,30.00
2024-03-06T01:01:16.119Z,30.10
2024-03-06T01:02:16.119Z,31.70
2024-03-06T01:03:16.010Z,29.90
2024-03-06T01:04:16.016Z,31.70
2024-03-06T01:05:16.061Z,31.50
2024-03-06T01:06:15.977Z,31.30
2024-03-06T01:07:15.955Z,30.30
2024-03-06T01:08:16.003Z,30.60
2024-03-06T01:09:15.933Z,30.60
2024-03-06T01:10:15.936Z,29.90
2024-03-06T01:11:15.959Z,30.70
2024-03-06T01:12:15.916Z,31.40
2024-03-06T01:13:15.907Z,31.10
2024-03-06T01:14:15.909Z,29.80
2024-03-06T01:15:15.867Z,31.10
2024-03-06T01:16:15.867Z,31.80
2024-03-06T01:17:15.955Z,31.40
2024-03-06T01:18:15.845Z,32.20
2024-03-06T01:19:15.828Z,30.10
2024-03-06T01:20:15.972Z,31.60
2024-03-06T01:21:15.821Z,29.90
2024-03-06T01:22:15.806Z,30.30
2024-03-06T01:23:15.816Z,31.70
2024-03-06T01:24:15.773Z,32.90
2024-03-06T01:25:15.772Z,32.60
2024-03-06T01:26:15.776Z,32.10
2024-03-06T01:27:15.784Z,32.40
2024-03-06T01:28:15.734Z,32.70
2024-03-06T01:29:15.776Z,30.00
2024-03-06T01:30:15.709Z,31.90
2024-03-06T01:31:15.693Z,32.50
2024-03-06T01:32:15.754Z,31.50
2024-03-06T01:33:15.834Z,31.90
2024-03-06T01:34:15.682Z,31.60
2024-03-06T01:35:15.687Z,31.10
2024-03-06T01:36:15.687Z,31.90
2024-03-06T01:37:15.651Z,31.10
2024-03-06T01:38:15.714Z,31.50
2024-03-06T01:39:15.610Z,31.20
2024-03-06T01:40:15.636Z,32.10
2024-03-06T01:41:15.654Z,30.50
2024-03-06T01:42:15.593Z,31.70
2024-03-06T01:43:15.572Z,31.60
2024-03-06T01:44:15.620Z,33.30
2024-03-06T01:45:15.541Z,31.90
2024-03-06T01:46:15.553Z,32.30
2024-03-06T01:47:15.550Z,31.80
2024-03-06T01:48:15.512Z,31.80
2024-03-06T01:49:20.351Z,32.30
2024-03-06T01:50:15.525Z,30.70
2024-03-06T01:51:15.494Z,32.80
2024-03-06T01:52:15.472Z,31.60
2024-03-06T01:53:15.530Z,32.20
2024-03-06T01:54:15.445Z,33.40
2024-03-06T01:55:15.447Z,32.60
2024-03-06T01:56:15.518Z,31.70
2024-03-06T01:57:15.416Z,31.60
2024-03-06T01:58:15.397Z,32.30
2024-03-06T01:59:21.715Z,31.90
2024-03-06T02:00:15.395Z,31.90
2024-03-06T02:01:15.416Z,33.90
2024-03-06T02:02:15.390Z,31.80
2024-03-06T02:03:15.350Z,32.80
2024-03-06T02:04:15.365Z,33.00
2024-03-06T02:05:15.376Z,32.50
2024-03-06T02:06:15.309Z,31.70
2024-03-06T02:07:15.311Z,32.90
2024-03-06T02:08:15.314Z,32.20
2024-03-06T02:09:15.301Z,31.60
2024-03-06T02:10:15.263Z,32.30
2024-03-06T02:11:15.315Z,31.80
2024-03-06T02:12:15.240Z,31.30
2024-03-06T02:13:15.321Z,30.50
2024-03-06T02:14:15.257Z,30.60
2024-03-06T02:15:15.215Z,30.50
2024-03-06T02:16:15.198Z,30.70
2024-03-06T02:17:15.262Z,30.80
2024-03-06T02:18:15.219Z,29.60
2024-03-06T02:19:15.251Z,30.70
2024-03-06T02:20:15.213Z,31.50
2024-03-06T02:21:15.163Z,30.60
2024-03-06T02:22:15.140Z,31.40
2024-03-06T02:23:15.203Z,31.30
2024-03-06T02:24:15.114Z,30.50
2024-03-06T02:25:15.118Z,31.10
2024-03-06T02:26:15.170Z,30.80
2024-03-06T02:27:15.098Z,31.10
2024-03-06T02:28:15.093Z,30.80
2024-03-06T02:29:15.095Z,31.40
2024-03-06T02:30:15.046Z,30.30
2024-03-06T02:31:15.039Z,30.70
2024-03-06T02:32:15.280Z,30.30
2024-03-06T02:33:15.160Z,30.90
2024-03-06T02:34:15.002Z,29.90
2024-03-06T02:35:15.528Z,31.10
2024-03-06T02:36:14.974Z,30.10
2024-03-06T02:37:15.009Z,30.60
2024-03-06T02:38:15.092Z,31.20
2024-03-06T02:39:14.955Z,30.40
2024-03-06T02:40:15.045Z,29.90
2024-03-06T02:41:15.091Z,31.60
2024-03-06T02:42:14.923Z,29.20
2024-03-06T02:43:14.928Z,30.60
2024-03-06T02:44:14.966Z,32.20
2024-03-06T02:45:14.900Z,32.60
2024-03-06T02:46:14.891Z,31.50
2024-03-06T02:47:14.912Z,32.60
2024-03-06T02:48:14.888Z,32.10
2024-03-06T02:49:14.841Z,31.60
2024-03-06T02:50:14.905Z,31.60
2024-03-06T02:51:14.846Z,31.20
2024-03-06T02:52:14.808Z,32.70
2024-03-06T02:53:14.814Z,32.60
2024-03-06T02:54:14.777Z,31.30
2024-03-06T02:55:14.792Z,31.10
2024-03-06T02:56:14.816Z,31.60
2024-03-06T02:57:14.770Z,33.10
2024-03-06T02:58:14.744Z,33.70
2024-03-06T02:59:14.812Z,30.70
2024-03-06T03:00:15.054Z,31.10
2024-03-06T03:01:14.775Z,30.70
2024-03-06T03:02:14.778Z,29.60
2024-03-06T03:03:14.684Z,30.30
2024-03-06T03:04:14.693Z,31.00
2024-03-06T03:05:14.726Z,29.40
2024-03-06T03:06:14.646Z,30.90
2024-03-06T03:07:14.642Z,31.50
2024-03-06T03:08:14.669Z,30.70
2024-03-06T03:09:14.628Z,29.40
2024-03-06T03:10:14.627Z,29.90
2024-03-06T03:11:14.718Z,30.20
2024-03-06T03:12:14.582Z,29.70
2024-03-06T03:13:14.580Z,29.70
2024-03-06T03:14:14.587Z,28.90
2024-03-06T03:15:14.568Z,29.80
2024-03-06T03:16:14.545Z,31.00
2024-03-06T03:17:14.609Z,29.70
2024-03-06T03:18:14.601Z,29.30
2024-03-06T03:19:14.526Z,29.30
2024-03-06T03:20:14.689Z,29.50
2024-03-06T03:21:14.491Z,29.80
2024-03-06T03:22:14.496Z,28.20
2024-03-06T03:23:14.500Z,29.00
2024-03-06T03:24:14.471Z,28.80
2024-03-06T03:25:14.461Z,27.60
2024-03-06T03:26:14.505Z,28.50
2024-03-06T03:27:14.431Z,28.60
2024-03-06T03:28:14.509Z,29.60
2024-03-06T03:29:14.529Z,29.60
2024-03-06T03:30:14.390Z,28.70
2024-03-06T03:31:14.385Z,29.00
2024-03-06T03:32:14.520Z,29.60
2024-03-06T03:33:14.434Z,29.60
2024-03-06T03:34:14.355Z,29.10
2024-03-06T03:35:14.397Z,29.30
2024-03-06T03:36:14.330Z,29.20
2024-03-06T03:37:14.313Z,29.80
2024-03-06T03:38:14.405Z,28.50
2024-03-06T03:39:14.332Z,27.80
2024-03-06T03:40:14.282Z,28.40
2024-03-06T03:41:14.459Z,29.20
2024-03-06T03:42:14.266Z,29.80
2024-03-06T03:43:14.263Z,29.00
2024-03-06T03:44:14.362Z,30.00
2024-03-06T03:45:14.237Z,29.70
2024-03-06T03:46:14.216Z,28.20
2024-03-06T03:47:14.233Z,29.90
2024-03-06T03:48:14.206Z,29.90
2024-03-06T03:49:14.193Z,29.90
2024-03-06T03:50:14.300Z,29.50
2024-03-06T03:51:14.156Z,30.20
2024-03-06T03:52:14.157Z,29.40
2024-03-06T03:53:14.186Z,29.40
2024-03-06T03:54:14.200Z,29.90
2024-03-06T03:55:14.117Z,30.90
2024-03-06T03:56:14.233Z,29.30
2024-03-06T03:57:14.099Z,29.30
2024-03-06T03:58:14.085Z,29.60
2024-03-06T03:59:14.122Z,30.50
2024-03-06T04:00:14.058Z,28.70
2024-03-06T04:01:14.142Z,29.20
2024-03-06T04:02:14.152Z,30.00
2024-03-06T04:03:14.020Z,28.20
2024-03-06T04:04:14.016Z,29.10
2024-03-06T04:05:14.055Z,29.20
2024-03-06T04:06:14.002Z,29.30
2024-03-06T04:07:13.978Z,29.20
2024-03-06T04:08:14.006Z,29.90
2024-03-06T04:09:13.954Z,28.90
2024-03-06T04:10:13.963Z,29.60
2024-03-06T04:11:14.040Z,29.30
2024-03-06T04:12:13.996Z,28.70
2024-03-06T04:13:14.034Z,28.90
2024-03-06T04:14:13.960Z,29.00
2024-03-06T04:15:13.902Z,29.60
2024-03-06T04:16:13.893Z,29.10
2024-03-06T04:17:13.928Z,28.90
2024-03-06T04:18:13.923Z,29.00
2024-03-06T04:19:13.844Z,28.80
2024-03-06T04:20:14.031Z,29.60
2024-03-06T04:21:13.825Z,29.60
2024-03-06T04:22:13.815Z,29.50
2024-03-06T04:23:13.844Z,28.20
2024-03-06T04:24:13.795Z,29.20
2024-03-06T04:25:13.803Z,29.20
2024-03-06T04:26:13.878Z,30.10
2024-03-06T04:27:13.754Z,29.20
2024-03-06T04:28:13.751Z,30.00
2024-03-06T04:29:13.819Z,29.20
2024-03-06T04:30:13.748Z,28.60
2024-03-06T04:31:13.712Z,28.00
2024-03-06T04:32:13.756Z,28.30
2024-03-06T04:33:13.722Z,27.40
2024-03-06T04:34:13.692Z,27.50
2024-03-06T04:35:13.827Z,28.10
2024-03-06T04:36:13.710Z,27.30
2024-03-06T04:37:13.649Z,28.10
2024-03-06T04:38:13.790Z,28.20
2024-03-06T04:39:13.631Z,28.20
2024-03-06T04:40:13.619Z,27.70
2024-03-06T04:41:13.663Z,27.80
2024-03-06T04:42:13.598Z,27.50
2024-03-06T04:43:13.594Z,28.30
2024-03-06T04:44:13.618Z,27.10
2024-03-06T04:45:13.602Z,27.10
2024-03-06T04:46:13.556Z,29.10
2024-03-06T04:47:13.642Z,27.40
2024-03-06T04:48:13.601Z,29.20
2024-03-06T04:49:13.510Z,27.90
2024-03-06T04:50:13.606Z,29.60
2024-03-06T04:51:13.489Z,27.50
2024-03-06T04:52:13.496Z,28.70
2024-03-06T04:53:13.636Z,28.20
2024-03-06T04:54:13.460Z,28.10
2024-03-06T04:55:13.454Z,28.60
2024-03-06T04:56:13.512Z,27.60
2024-03-06T04:57:13.451Z,27.70
2024-03-06T04:58:13.428Z,27.30
2024-03-06T04:59:13.424Z,27.30
2024-03-06T05:00:13.401Z,27.10
2024-03-06T05:01:13.443Z,28.10
2024-03-06T05:02:13.580Z,27.20
2024-03-06T05:58:14.394Z,27.30
2024-03-06T05:58:50.590Z,27.20
2024-03-06T05:59:50.617Z,28.00
2024-03-06T06:00:50.642Z,28.70
2024-03-06T06:01:50.561Z,27.20
2024-03-06T06:02:50.579Z,28.80
2024-03-06T06:03:50.546Z,29.10
2024-03-06T06:05:00.237Z,28.70
2024-03-06T06:05:50.565Z,29.20
2024-03-06T06:06:50.508Z,28.70
2024-03-06T06:07:50.507Z,29.10
2024-03-06T06:08:50.487Z,28.20
2024-03-06T06:09:50.468Z,28.90
2024-03-06T06:10:50.469Z,27.80
2024-03-06T06:11:50.580Z,28.50
2024-03-06T06:12:50.728Z,27.20
2024-03-06T06:13:50.425Z,28.20
2024-03-06T06:14:50.417Z,28.80
2024-03-06T06:15:50.417Z,28.80
2024-03-06T06:16:50.411Z,29.40
2024-03-06T06:17:50.472Z,29.30
2024-03-06T06:18:50.383Z,30.20
2024-03-06T06:19:50.363Z,29.10
2024-03-06T06:20:50.384Z,28.80
2024-03-06T06:21:50.350Z,31.10
2024-03-06T06:22:50.352Z,30.50
2024-03-06T06:23:50.324Z,29.80
2024-03-06T06:24:50.326Z,30.90
2024-03-06T06:25:50.305Z,31.40
2024-03-06T06:26:50.302Z,31.80
2024-03-06T06:27:50.280Z,31.80
2024-03-06T06:28:50.264Z,31.80
2024-03-06T06:29:50.284Z,32.00
2024-03-06T06:30:50.249Z,31.90
2024-03-06T06:31:50.229Z,32.00
2024-03-06T06:32:50.377Z,32.50
2024-03-06T06:33:50.222Z,33.20
2024-03-06T06:34:50.199Z,32.20
2024-03-06T06:35:50.273Z,32.30
2024-03-06T06:36:50.184Z,31.90
2024-03-06T06:37:50.162Z,32.70
2024-03-06T06:38:50.171Z,33.80
2024-03-06T06:39:50.149Z,31.40
2024-03-06T06:40:50.143Z,33.20
2024-03-06T06:41:50.121Z,32.10
2024-03-06T06:42:50.134Z,32.70
2024-03-06T06:43:50.093Z,33.10
2024-03-06T06:44:50.096Z,32.40
2024-03-06T06:45:53.117Z,31.30
2024-03-06T06:46:50.067Z,32.30
2024-03-06T06:47:50.220Z,30.80
2024-03-06T06:48:50.053Z,32.10
2024-03-06T06:49:50.043Z,32.90
2024-03-06T06:50:50.082Z,30.50
2024-03-06T06:51:50.002Z,32.40
2024-03-06T06:52:50.004Z,32.50
2024-03-06T06:53:50.005Z,31.70
2024-03-06T06:54:49.993Z,32.30
2024-03-06T06:55:49.966Z,32.00
2024-03-06T06:56:49.952Z,33.10
2024-03-06T06:57:49.941Z,32.20
2024-03-06T06:58:49.944Z,32.10
2024-03-06T06:59:49.957Z,31.20
2024-03-06T07:00:49.926Z,31.70
2024-03-06T07:01:49.905Z,31.90
2024-03-06T07:02:49.886Z,31.30
2024-03-06T07:03:49.878Z,32.70
2024-03-06T07:04:49.874Z,32.60
2024-03-06T07:05:49.877Z,32.80
2024-03-06T07:06:49.847Z,32.80
2024-03-06T07:07:52.970Z,32.50
2024-03-06T07:08:49.829Z,33.40
2024-03-06T07:09:49.811Z,33.90
2024-03-06T07:10:49.799Z,32.30
2024-03-06T07:11:49.924Z,32.70
2024-03-06T07:12:49.793Z,32.40
2024-03-06T07:13:49.761Z,32.80
2024-03-06T07:14:49.752Z,31.20
2024-03-06T07:15:49.736Z,32.60
2024-03-06T07:16:49.736Z,31.80
2024-03-06T07:17:49.900Z,32.80
2024-03-06T07:18:49.721Z,31.60
2024-03-06T07:19:49.695Z,33.30
2024-03-06T07:20:49.742Z,32.50
2024-03-06T07:21:49.681Z,32.30
2024-03-06T07:22:49.676Z,32.50
2024-03-06T07:23:49.653Z,34.40
2024-03-06T07:24:49.644Z,33.60
2024-03-06T07:25:49.642Z,33.00
2024-03-06T07:26:49.680Z,31.50
2024-03-06T07:27:49.693Z,33.10
2024-03-06T07:28:49.726Z,31.70
2024-03-06T07:29:49.667Z,31.00
2024-03-06T07:30:49.574Z,31.00
2024-03-06T07:31:49.698Z,31.30
2024-03-06T07:32:49.675Z,31.00
2024-03-06T07:33:49.642Z,31.10
2024-03-06T07:34:49.539Z,31.60
2024-03-06T07:35:49.523Z,31.10
2024-03-06T07:36:49.538Z,30.90
2024-03-06T07:37:49.515Z,31.20
2024-03-06T07:38:49.565Z,30.40
2024-03-06T07:39:51.897Z,30.70
2024-03-06T07:40:49.596Z,30.30
2024-03-06T07:41:49.472Z,31.20
2024-03-06T07:42:49.445Z,30.30
2024-03-06T07:43:49.433Z,30.30
2024-03-06T07:44:49.426Z,31.40
2024-03-06T07:45:49.420Z,31.30
2024-03-06T07:46:49.405Z,30.70
2024-03-06T07:47:49.745Z,30.30
2024-03-06T07:48:49.394Z,32.10
2024-03-06T07:49:49.360Z,32.20
2024-03-06T07:50:49.410Z,31.60
2024-03-06T07:51:49.338Z,32.60
2024-03-06T07:52:49.338Z,31.30
2024-03-06T07:53:49.323Z,30.10
2024-03-06T07:54:49.344Z,31.90
2024-03-06T07:55:49.327Z,31.40
2024-03-06T07:56:49.350Z,30.90
2024-03-06T07:57:49.279Z,30.70
2024-03-06T07:58:49.269Z,30.90
2024-03-06T07:59:49.271Z,29.70
2024-03-06T08:00:49.246Z,30.50
2024-03-06T08:01:49.246Z,31.00
2024-03-06T08:02:49.233Z,30.80
2024-03-06T08:03:49.263Z,30.50
2024-03-06T08:04:49.211Z,29.20
2024-03-06T08:05:49.249Z,29.00
2024-03-06T08:06:49.182Z,28.40
2024-03-06T08:07:49.165Z,29.90
2024-03-06T08:08:49.195Z,30.50
2024-03-06T08:09:49.151Z,30.90
2024-03-06T08:10:49.264Z,30.10
2024-03-06T08:11:49.136Z,29.80
2024-03-06T08:12:49.166Z,30.40
2024-03-06T08:13:49.131Z,31.70
2024-03-06T08:14:49.139Z,29.60
2024-03-06T08:15:49.084Z,30.70
2024-03-06T08:16:49.109Z,30.10
2024-03-06T08:17:49.141Z,30.30
2024-03-06T08:18:49.057Z,30.70
2024-03-06T08:19:49.029Z,30.20
2024-03-06T08:20:49.080Z,30.20
2024-03-06T08:21:49.013Z,28.80
2024-03-06T08:22:49.039Z,29.70
2024-03-06T08:23:49.559Z,31.10
2024-03-06T08:24:48.978Z,29.20
2024-03-06T08:25:48.967Z,29.20
2024-03-06T08:26:48.976Z,28.60
2024-03-06T08:27:48.951Z,29.40
2024-03-06T08:28:48.936Z,28.90
2024-03-06T08:29:50.035Z,28.70
2024-03-06T08:30:48.944Z,29.80
2024-03-06T08:31:48.906Z,28.90
2024-03-06T08:32:49.043Z,28.00
2024-03-06T08:33:48.924Z,26.90
2024-03-06T08:34:48.863Z,28.50
2024-03-06T08:35:48.920Z,27.20
2024-03-06T08:36:48.871Z,27.80
2024-03-06T08:37:48.876Z,26.20
2024-03-06T08:38:48.841Z,25.70
2024-03-06T08:39:48.809Z,26.20
2024-03-06T08:40:48.806Z,26.30
2024-03-06T08:41:48.854Z,26.10
2024-03-06T08:42:48.828Z,26.70
2024-03-06T08:43:48.767Z,25.80
2024-03-06T08:44:48.761Z,26.80
2024-03-06T08:45:48.749Z,26.20
2024-03-06T08:46:48.753Z,25.10
2024-03-06T08:47:49.019Z,26.20
2024-03-06T08:48:48.728Z,26.40
2024-03-06T08:49:48.738Z,25.70
2024-03-06T08:50:48.754Z,25.80
2024-03-06T08:51:48.693Z,26.00
2024-03-06T08:52:48.718Z,26.00
2024-03-06T08:53:48.728Z,26.30
2024-03-06T08:54:48.673Z,25.90
2024-03-06T08:55:48.665Z,24.20
2024-03-06T08:56:48.734Z,24.60
2024-03-06T08:57:48.635Z,25.50
2024-03-06T08:58:48.620Z,25.30
2024-03-06T08:59:48.583Z,24.80
2024-03-06T09:00:48.611Z,25.20
2024-03-06T09:01:48.626Z,25.20
2024-03-06T09:02:48.611Z,24.20
2024-03-06T09:03:48.599Z,26.20
2024-03-06T09:04:48.564Z,25.00
2024-03-06T09:05:48.565Z,25.60
2024-03-06T09:06:48.511Z,26.30
2024-03-06T09:07:48.508Z,26.20
2024-03-06T09:08:48.590Z,25.10
2024-03-06T09:09:48.486Z,25.40
2024-03-06T09:10:48.492Z,25.90
2024-03-06T09:11:48.519Z,25.50
2024-03-06T09:12:48.481Z,25.20
2024-03-06T09:13:48.480Z,26.00
2024-03-06T09:14:48.475Z,26.60
2024-03-06T09:15:48.415Z,25.80
2024-03-06T09:16:48.409Z,26.20
2024-03-06T09:17:48.484Z,25.70
2024-03-06T09:18:48.397Z,26.50
2024-03-06T09:19:59.559Z,25.30
2024-03-06T09:20:48.436Z,25.10
2024-03-06T09:21:48.340Z,25.60
2024-03-06T09:22:48.338Z,24.60
2024-03-06T09:23:48.357Z,25.20
2024-03-06T09:24:48.330Z,24.60
2024-03-06T09:25:48.301Z,23.50
2024-03-06T09:26:48.338Z,24.30
2024-03-06T09:27:48.272Z,24.30
2024-03-06T09:28:48.302Z,23.80
2024-03-06T09:29:48.342Z,23.50
2024-03-06T09:30:48.246Z,23.60
2024-03-06T09:31:48.225Z,23.40
2024-03-06T09:32:48.301Z,23.60
2024-03-06T09:33:48.279Z,23.90
2024-03-06T09:34:48.208Z,23.40
2024-03-06T09:35:48.252Z,24.60
2024-03-06T09:36:48.177Z,23.30
2024-03-06T09:37:48.195Z,23.40
2024-03-06T09:38:48.217Z,23.60
2024-03-06T09:39:48.151Z,23.80
2024-03-06T09:40:48.158Z,23.50
2024-03-06T09:41:48.150Z,23.10
2024-03-06T09:42:48.142Z,23.10
2024-03-06T09:43:48.108Z,22.50
2024-03-06T09:44:48.169Z,23.10
2024-03-06T09:45:48.081Z,21.50
2024-03-06T09:46:48.064Z,21.80
2024-03-06T09:47:48.249Z,22.60
2024-03-06T09:48:48.173Z,21.70
2024-03-06T09:49:48.025Z,21.20
2024-03-06T09:50:48.066Z,21.80
2024-03-06T09:51:48.021Z,23.20
2024-03-06T09:52:48.016Z,21.50
2024-03-06T09:53:48.037Z,21.70
2024-03-06T09:54:47.985Z,22.10
2024-03-06T09:55:47.966Z,21.20
2024-03-06T09:56:47.997Z,22.00
2024-03-06T09:57:47.976Z,23.00
2024-03-06T09:58:47.938Z,23.00
2024-03-06T09:59:47.961Z,24.30
2024-03-06T10:00:47.948Z,23.10
2024-03-06T10:01:47.919Z,24.10
2024-03-06T10:02:47.897Z,24.00
2024-03-06T10:03:47.879Z,23.40
2024-03-06T10:04:47.970Z,22.60
2024-03-06T10:05:47.912Z,22.40
2024-03-06T10:06:47.856Z,23.10
2024-03-06T10:07:47.827Z,23.10
2024-03-06T10:08:47.931Z,23.30
2024-03-06T10:09:47.802Z,21.90
2024-03-06T10:10:47.810Z,22.90
2024-03-06T10:11:47.919Z,23.60
2024-03-06T10:12:47.777Z,23.60
2024-03-06T10:13:47.759Z,22.90
2024-03-06T10:14:47.768Z,22.70
2024-03-06T10:15:47.745Z,22.90
2024-03-06T10:16:47.726Z,21.10
2024-03-06T10:17:48.170Z,21.10
2024-03-06T10:18:47.761Z,20.90
2024-03-06T10:19:47.698Z,21.50
2024-03-06T10:20:47.763Z,21.20
2024-03-06T10:21:47.672Z,22.00
2024-03-06T10:22:47.664Z,22.20
2024-03-06T10:23:47.664Z,20.20
2024-03-06T10:24:47.653Z,20.10
2024-03-06T10:25:47.635Z,20.20
2024-03-06T10:26:47.657Z,19.10
2024-03-06T10:27:47.608Z,19.30
2024-03-06T10:28:47.604Z,20.40
2024-03-06T10:29:47.704Z,20.90
2024-03-06T10:30:47.570Z,19.90
2024-03-06T10:31:47.558Z,19.70
2024-03-06T10:32:47.699Z,20.40
2024-03-06T10:33:47.562Z,19.00
2024-03-06T10:34:47.574Z,20.00
2024-03-06T10:35:47.714Z,19.70
2024-03-06T10:36:47.505Z,18.90
2024-03-06T10:37:47.513Z,17.60
2024-03-06T10:38:47.554Z,17.90
2024-03-06T10:39:47.489Z,19.40
2024-03-06T10:40:47.460Z,19.10
2024-03-06T10:41:47.545Z,18.40
2024-03-06T10:42:47.439Z,17.80
2024-03-06T10:43:47.465Z,17.20
2024-03-06T10:44:47.436Z,18.70
2024-03-06T10:45:47.417Z,18.50
2024-03-06T10:46:47.396Z,18.20
2024-03-06T10:47:47.441Z,18.30
2024-03-06T10:48:47.423Z,18.90
2024-03-06T10:49:47.362Z,18.60
2024-03-06T10:50:47.466Z,19.70
2024-03-06T10:51:47.348Z,19.10
2024-03-06T10:52:47.346Z,19.40
2024-03-06T10:53:47.430Z,19.10
2024-03-06T10:54:47.449Z,19.60
2024-03-06T10:55:47.295Z,19.90
2024-03-06T10:56:47.312Z,19.30
2024-03-06T10:57:47.281Z,19.30
2024-03-06T10:58:47.294Z,18.30
2024-03-06T10:59:47.324Z,18.40
2024-03-06T11:00:47.241Z,19.00
2024-03-06T11:01:47.263Z,19.00
2024-03-06T11:02:47.247Z,19.00
2024-03-06T11:03:47.204Z,19.80
2024-03-06T11:04:47.196Z,18.30
2024-03-06T11:05:47.383Z,19.90
2024-03-06T11:06:47.206Z,19.40
2024-03-06T11:07:47.166Z,19.20
2024-03-06T11:08:47.178Z,18.80
2024-03-06T11:09:47.136Z,19.60
2024-03-06T11:10:47.338Z,18.60
2024-03-06T11:11:47.183Z,18.30
2024-03-06T11:12:50.219Z,18.80
2024-03-06T11:13:47.093Z,17.70
2024-03-06T11:14:47.118Z,17.90
2024-03-06T11:15:47.085Z,18.20
2024-03-06T11:16:47.074Z,17.60
2024-03-06T11:17:47.115Z,17.00
2024-03-06T11:18:47.079Z,18.30
2024-03-06T11:19:47.044Z,17.50
2024-03-06T11:20:47.046Z,16.90
2024-03-06T11:21:47.023Z,16.80
2024-03-06T11:22:46.996Z,17.20
2024-03-06T11:23:46.998Z,17.30
2024-03-06T11:24:46.974Z,18.50
2024-03-06T11:25:47.123Z,18.50
2024-03-06T11:26:47.000Z,19.90
2024-03-06T11:27:46.986Z,18.60
2024-03-06T11:28:46.927Z,17.80
2024-03-06T11:29:46.956Z,19.20
2024-03-06T11:30:46.910Z,19.30
2024-03-06T11:31:46.891Z,19.40
2024-03-06T11:32:46.957Z,18.80
2024-03-06T11:33:47.176Z,20.20
2024-03-06T11:34:46.888Z,18.30
2024-03-06T11:35:46.933Z,18.00
2024-03-06T11:36:46.843Z,17.60
2024-03-06T11:37:46.819Z,18.20
2024-03-06T11:38:46.865Z,17.60
2024-03-06T11:39:46.817Z,19.00
2024-03-06T11:40:46.813Z,18.70
2024-03-06T11:41:46.885Z,18.90
2024-03-06T11:42:46.776Z,19.40
2024-03-06T11:43:46.759Z,18.90
2024-03-06T11:44:46.839Z,17.80
2024-03-06T11:45:46.733Z,17.50
2024-03-06T11:46:46.744Z,17.70
2024-03-06T11:47:46.750Z,17.10
2024-03-06T11:48:46.813Z,17.50
2024-03-06T11:49:46.724Z,18.00
2024-03-06T11:50:46.748Z,17.60
2024-03-06T11:51:46.672Z,17.80
2024-03-06T11:52:46.679Z,18.10
2024-03-06T11:53:46.751Z,17.30
2024-03-06T11:54:46.655Z,17.90
2024-03-06T11:55:46.625Z,18.20
2024-03-06T11:56:46.739Z,17.50
2024-03-06T11:57:46.617Z,17.80
2024-03-06T11:58:49.314Z,17.20
2024-03-06T11:59:46.671Z,16.80
2024-03-06T12:00:46.621Z,17.90
2024-03-06T12:01:46.577Z,17.50
2024-03-06T12:02:46.655Z,17.80
2024-03-06T12:03:46.565Z,19.00
2024-03-06T12:04:46.538Z,18.40
2024-03-06T12:05:46.554Z,18.20
2024-03-06T12:06:46.518Z,18.40
2024-03-06T12:07:46.512Z,18.90
2024-03-06T12:08:46.564Z,17.60
2024-03-06T12:09:46.490Z,18.20
2024-03-06T12:10:46.494Z,17.90
2024-03-06T12:11:46.688Z,19.20
2024-03-06T12:12:46.459Z,19.00
2024-03-06T12:13:46.445Z,17.50
2024-03-06T12:14:46.431Z,17.40
2024-03-06T12:15:46.415Z,18.20
2024-03-06T12:16:46.390Z,18.40
2024-03-06T12:17:46.481Z,17.80
2024-03-06T12:18:46.370Z,18.20
2024-03-06T12:19:46.960Z,17.70
2024-03-06T12:20:46.505Z,16.40
2024-03-06T12:21:46.352Z,17.90
2024-03-06T12:22:46.336Z,17.10
2024-03-06T12:23:46.390Z,17.10
2024-03-06T12:24:46.338Z,16.90
2024-03-06T12:25:58.392Z,16.60
2024-03-06T12:26:46.338Z,16.80
2024-03-06T12:27:46.292Z,17.00
2024-03-06T12:28:46.262Z,16.80
2024-03-06T12:29:46.327Z,16.80
2024-03-06T12:30:46.251Z,16.50
2024-03-06T12:31:46.250Z,16.50
2024-03-06T12:32:46.311Z,17.60
2024-03-06T12:33:46.230Z,16.90
2024-03-06T12:34:46.226Z,16.20
2024-03-06T12:35:46.277Z,16.00
2024-03-06T12:36:46.198Z,15.60
2024-03-06T12:37:46.227Z,15.50
2024-03-06T12:38:46.268Z,15.40
2024-03-06T12:39:46.145Z,14.90
2024-03-06T12:40:46.165Z,15.30
2024-03-06T12:41:46.199Z,15.30
2024-03-06T12:42:46.144Z,14.50
2024-03-06T12:43:46.099Z,14.90
2024-03-06T12:44:46.217Z,15.50
2024-03-06T12:45:46.136Z,15.60
2024-03-06T12:46:46.083Z,15.90
2024-03-06T12:47:46.127Z,16.60
2024-03-06T12:48:46.046Z,16.90
2024-03-06T12:49:46.056Z,16.60
2024-03-06T12:50:46.136Z,17.50
2024-03-06T12:51:46.019Z,17.10
2024-03-06T12:52:46.067Z,17.90
2024-03-06T12:53:46.285Z,18.10
2024-03-06T12:54:46.055Z,17.40
2024-03-06T12:55:45.983Z,17.50
2024-03-06T12:56:46.047Z,17.00
2024-03-06T12:57:45.998Z,17.40
2024-03-06T12:58:45.930Z,17.40
2024-03-06T12:59:46.056Z,17.20
2024-03-06T13:00:45.921Z,17.40
2024-03-06T13:01:45.928Z,17.90
2024-03-06T13:02:46.184Z,17.30
2024-03-06T13:03:45.887Z,16.40
2024-03-06T13:04:45.875Z,17.60
2024-03-06T13:05:45.951Z,17.40
2024-03-06T13:06:45.854Z,17.10
2024-03-06T13:07:45.851Z,17.30
2024-03-06T13:08:45.869Z,17.30
2024-03-06T13:09:45.830Z,17.50
2024-03-06T13:10:45.859Z,17.40
2024-03-06T13:11:45.887Z,17.40
2024-03-06T13:12:45.792Z,18.40
2024-03-06T13:13:45.803Z,16.20
2024-03-06T13:14:45.808Z,16.60
2024-03-06T13:15:45.741Z,17.10
2024-03-06T13:16:45.750Z,17.70
2024-03-06T13:17:45.790Z,17.50
2024-03-06T13:18:45.901Z,17.10
2024-03-06T13:19:45.703Z,17.50
2024-03-06T13:20:45.742Z,17.70
2024-03-06T13:21:45.719Z,17.40
2024-03-06T13:22:45.689Z,17.40
2024-03-06T13:23:45.704Z,17.40
2024-03-06T13:24:48.208Z,17.40
2024-03-06T13:25:45.635Z,17.60
2024-03-06T13:26:45.719Z,17.10
2024-03-06T13:27:45.630Z,17.60
2024-03-06T13:28:45.606Z,16.90
2024-03-06T13:29:45.721Z,17.70
2024-03-06T13:30:45.580Z,18.40
2024-03-06T13:31:45.604Z,16.90
2024-03-06T13:32:45.689Z,16.60
2024-03-06T13:33:45.584Z,16.90
2024-03-06T13:34:45.537Z,15.90
2024-03-06T13:35:45.635Z,17.20
2024-03-06T13:36:45.530Z,17.30
2024-03-06T13:37:45.505Z,17.10
2024-03-06T13:38:45.691Z,17.30
2024-03-06T13:39:45.479Z,16.30
2024-03-06T13:40:45.475Z,16.80
2024-03-06T13:41:45.535Z,16.90
2024-03-06T13:42:45.446Z,16.90
2024-03-06T13:43:45.443Z,16.50
2024-03-06T13:44:45.503Z,16.30
2024-03-06T13:45:45.407Z,17.60
2024-03-06T13:46:45.724Z,20.70